sensor_id;sensor_type;location;lat;lon;timestamp;temperature;humidity
65637;DHT22;52327;42.622;23.316;2023-08-17T00:00:14;23.27;48.34
65637;DHT22;52327;42.622;23.316;2023-08-17T00:02:43;23.26;47.78
65637;DHT22;52327;42.622;23.316;2023-08-17T00:05:08;23.16;48.51
65637;DHT22;52327;42.622;23.316;2023-08-17T00:07:34;23.13;48.09
65637;DHT22;52327;42.622;23.316;2023-08-17T00:10:03;23.13;47.37
65637;DHT22;52327;42.622;23.316;2023-08-17T00:12:29;23.12;47.35
65637;DHT22;52327;42.622;23.316;2023-08-17T00:14:54;23.30;46.65
65637;DHT22;52327;42.622;23.316;2023-08-17T00:17:22;23.10;47.25
65637;DHT22;52327;42.622;23.316;2023-08-17T00:19:50;22.99;47.58
65637;DHT22;52327;42.622;23.316;2023-08-17T00:22:16;22.94;47.37
65637;DHT22;52327;42.622;23.316;2023-08-17T00:24:42;23.03;47.03
65637;DHT22;52327;42.622;23.316;2023-08-17T00:27:09;22.94;47.67
65637;DHT22;52327;42.622;23.316;2023-08-17T00:29:35;22.92;47.70
65637;DHT22;52327;42.622;23.316;2023-08-17T00:32:01;22.82;48.04
65637;DHT22;52327;42.622;23.316;2023-08-17T00:34:27;22.81;48.12
65637;DHT22;52327;42.622;23.316;2023-08-17T00:36:53;22.81;48.60
65637;DHT22;52327;42.622;23.316;2023-08-17T00:39:18;22.73;48.84
65637;DHT22;52327;42.622;23.316;2023-08-17T00:41:45;22.75;48.78
65637;DHT22;52327;42.622;23.316;2023-08-17T00:44:10;22.69;49.25
65637;DHT22;52327;42.622;23.316;2023-08-17T00:46:36;22.69;49.50
65637;DHT22;52327;42.622;23.316;2023-08-17T00:49:03;22.73;49.41
65637;DHT22;52327;42.622;23.316;2023-08-17T00:51:28;22.68;50.04
65637;DHT22;52327;42.622;23.316;2023-08-17T00:53:57;22.52;50.54
65637;DHT22;52327;42.622;23.316;2023-08-17T00:56:23;22.54;50.52
65637;DHT22;52327;42.622;23.316;2023-08-17T00:58:49;22.56;50.20
65637;DHT22;52327;42.622;23.316;2023-08-17T01:01:16;22.64;50.33
65637;DHT22;52327;42.622;23.316;2023-08-17T01:03:42;22.66;50.13
65637;DHT22;52327;42.622;23.316;2023-08-17T01:06:08;22.76;49.79
65637;DHT22;52327;42.622;23.316;2023-08-17T01:08:34;22.75;50.00
65637;DHT22;52327;42.622;23.316;2023-08-17T01:13:42;22.69;49.82
65637;DHT22;52327;42.622;23.316;2023-08-17T01:16:12;22.71;50.04
65637;DHT22;52327;42.622;23.316;2023-08-17T01:18:40;22.68;50.25
65637;DHT22;52327;42.622;23.316;2023-08-17T01:21:08;22.62;50.29
65637;DHT22;52327;42.622;23.316;2023-08-17T01:23:35;22.66;50.47
65637;DHT22;52327;42.622;23.316;2023-08-17T01:26:00;22.68;49.90
65637;DHT22;52327;42.622;23.316;2023-08-17T01:28:26;22.64;49.34
65637;DHT22;52327;42.622;23.316;2023-08-17T01:30:56;22.66;49.70
65637;DHT22;52327;42.622;23.316;2023-08-17T01:33:42;22.86;48.82
65637;DHT22;52327;42.622;23.316;2023-08-17T01:36:52;22.68;48.17
65637;DHT22;52327;42.622;23.316;2023-08-17T01:39:19;22.76;47.90
65637;DHT22;52327;42.622;23.316;2023-08-17T01:41:47;22.75;47.70
65637;DHT22;52327;42.622;23.316;2023-08-17T01:44:13;22.81;46.99
65637;DHT22;52327;42.622;23.316;2023-08-17T01:46:39;22.76;47.05
65637;DHT22;52327;42.622;23.316;2023-08-17T01:49:06;22.75;47.56
65637;DHT22;52327;42.622;23.316;2023-08-17T01:51:32;22.82;46.31
65637;DHT22;52327;42.622;23.316;2023-08-17T01:53:57;22.76;46.28
65637;DHT22;52327;42.622;23.316;2023-08-17T01:56:29;22.81;45.96
65637;DHT22;52327;42.622;23.316;2023-08-17T01:58:54;22.78;45.53
65637;DHT22;52327;42.622;23.316;2023-08-17T02:01:20;22.78;45.80
65637;DHT22;52327;42.622;23.316;2023-08-17T02:03:45;22.82;44.76
65637;DHT22;52327;42.622;23.316;2023-08-17T02:06:10;22.73;44.83
65637;DHT22;52327;42.622;23.316;2023-08-17T02:08:38;22.62;44.60
65637;DHT22;52327;42.622;23.316;2023-08-17T02:11:04;22.64;44.41
65637;DHT22;52327;42.622;23.316;2023-08-17T02:13:30;22.55;44.66
65637;DHT22;52327;42.622;23.316;2023-08-17T02:15:55;22.55;44.24
65637;DHT22;52327;42.622;23.316;2023-08-17T02:18:21;22.54;44.93
65637;DHT22;52327;42.622;23.316;2023-08-17T02:20:46;22.48;44.25
65637;DHT22;52327;42.622;23.316;2023-08-17T02:23:12;22.54;45.35
65637;DHT22;52327;42.622;23.316;2023-08-17T02:25:38;22.58;45.36
65637;DHT22;52327;42.622;23.316;2023-08-17T02:28:04;22.66;44.96
65637;DHT22;52327;42.622;23.316;2023-08-17T02:30:30;22.68;45.48
65637;DHT22;52327;42.622;23.316;2023-08-17T02:32:56;22.58;45.77
65637;DHT22;52327;42.622;23.316;2023-08-17T02:35:21;22.71;43.94
65637;DHT22;52327;42.622;23.316;2023-08-17T02:37:47;22.64;44.40
65637;DHT22;52327;42.622;23.316;2023-08-17T02:40:18;22.52;45.41
65637;DHT22;52327;42.622;23.316;2023-08-17T02:42:46;22.64;44.44
65637;DHT22;52327;42.622;23.316;2023-08-17T02:45:16;22.61;44.81
65637;DHT22;52327;42.622;23.316;2023-08-17T02:47:42;22.56;44.73
65637;DHT22;52327;42.622;23.316;2023-08-17T06:05:05;22.33;53.59
65637;DHT22;52327;42.622;23.316;2023-08-17T06:07:31;22.68;54.58
65637;DHT22;52327;42.622;23.316;2023-08-17T06:09:56;23.03;52.36
65637;DHT22;52327;42.622;23.316;2023-08-17T06:12:22;23.33;51.66
65637;DHT22;52327;42.622;23.316;2023-08-17T06:14:47;23.42;52.23
65637;DHT22;52327;42.622;23.316;2023-08-17T06:17:12;23.64;51.68
65637;DHT22;52327;42.622;23.316;2023-08-17T06:19:45;23.93;49.96
65637;DHT22;52327;42.622;23.316;2023-08-17T06:22:10;23.94;49.90
65637;DHT22;52327;42.622;23.316;2023-08-17T06:24:37;23.94;49.52
65637;DHT22;52327;42.622;23.316;2023-08-17T06:27:02;23.93;50.70
65637;DHT22;52327;42.622;23.316;2023-08-17T06:29:28;24.17;51.40
65637;DHT22;52327;42.622;23.316;2023-08-17T06:31:53;24.08;50.87
65637;DHT22;52327;42.622;23.316;2023-08-17T06:34:20;24.12;51.57
65637;DHT22;52327;42.622;23.316;2023-08-17T06:37:03;24.05;51.39
65637;DHT22;52327;42.622;23.316;2023-08-17T06:39:29;24.08;52.82
65637;DHT22;52327;42.622;23.316;2023-08-17T06:41:55;24.18;53.61
65637;DHT22;52327;42.622;23.316;2023-08-17T06:44:20;24.26;56.87
65637;DHT22;52327;42.622;23.316;2023-08-17T06:46:46;24.33;54.48
65637;DHT22;52327;42.622;23.316;2023-08-17T06:49:14;24.40;54.95
65637;DHT22;52327;42.622;23.316;2023-08-17T06:51:39;24.39;53.05
65637;DHT22;52327;42.622;23.316;2023-08-17T06:54:07;24.36;53.41
65637;DHT22;52327;42.622;23.316;2023-08-17T06:56:33;24.39;53.56
65637;DHT22;52327;42.622;23.316;2023-08-17T06:58:58;24.51;52.65
65637;DHT22;52327;42.622;23.316;2023-08-17T07:01:23;24.45;52.59
65637;DHT22;52327;42.622;23.316;2023-08-17T07:03:49;24.51;53.39
65637;DHT22;52327;42.622;23.316;2023-08-17T07:06:14;24.55;53.18
65637;DHT22;52327;42.622;23.316;2023-08-17T07:08:40;24.63;53.81
65637;DHT22;52327;42.622;23.316;2023-08-17T07:11:05;24.62;53.58
65637;DHT22;52327;42.622;23.316;2023-08-17T07:13:31;24.65;53.42
65637;DHT22;52327;42.622;23.316;2023-08-17T07:15:57;24.80;52.88
65637;DHT22;52327;42.622;23.316;2023-08-17T07:18:22;24.84;52.61
65637;DHT22;52327;42.622;23.316;2023-08-17T07:20:48;24.70;53.89
65637;DHT22;52327;42.622;23.316;2023-08-17T07:23:14;24.70;54.58
65637;DHT22;52327;42.622;23.316;2023-08-17T07:25:40;24.80;53.30
65637;DHT22;52327;42.622;23.316;2023-08-17T07:28:05;24.86;52.45
65637;DHT22;52327;42.622;23.316;2023-08-17T07:30:31;24.93;51.64
65637;DHT22;52327;42.622;23.316;2023-08-17T07:32:56;25.20;49.58
65637;DHT22;52327;42.622;23.316;2023-08-17T07:35:23;25.31;49.56
65637;DHT22;52327;42.622;23.316;2023-08-17T07:37:48;25.23;49.23
65637;DHT22;52327;42.622;23.316;2023-08-17T07:40:14;25.20;49.06
65637;DHT22;52327;42.622;23.316;2023-08-17T07:42:39;25.24;49.08
65637;DHT22;52327;42.622;23.316;2023-08-17T07:45:05;25.20;49.66
65637;DHT22;52327;42.622;23.316;2023-08-17T07:47:34;25.28;49.22
65637;DHT22;52327;42.622;23.316;2023-08-17T07:49:59;25.27;49.16
65637;DHT22;52327;42.622;23.316;2023-08-17T07:52:25;25.19;49.54
65637;DHT22;52327;42.622;23.316;2023-08-17T07:54:50;25.14;49.43
65637;DHT22;52327;42.622;23.316;2023-08-17T07:57:15;25.24;49.42
65637;DHT22;52327;42.622;23.316;2023-08-17T07:59:41;25.34;49.24
65637;DHT22;52327;42.622;23.316;2023-08-17T08:02:06;25.55;48.84
65637;DHT22;52327;42.622;23.316;2023-08-17T08:04:32;25.54;49.70
65637;DHT22;52327;42.622;23.316;2023-08-17T08:06:57;25.70;49.39
65637;DHT22;52327;42.622;23.316;2023-08-17T08:09:23;25.70;49.57
65637;DHT22;52327;42.622;23.316;2023-08-17T08:11:48;25.51;49.61
65637;DHT22;52327;42.622;23.316;2023-08-17T08:14:13;25.70;48.84
65637;DHT22;52327;42.622;23.316;2023-08-17T08:16:39;25.51;48.80
65637;DHT22;52327;42.622;23.316;2023-08-17T08:19:04;25.68;49.45
65637;DHT22;52327;42.622;23.316;2023-08-17T08:21:30;25.72;48.49
65637;DHT22;52327;42.622;23.316;2023-08-17T08:23:56;25.89;48.88
65637;DHT22;52327;42.622;23.316;2023-08-17T08:26:21;25.95;49.78
65637;DHT22;52327;42.622;23.316;2023-08-17T08:28:47;26.02;49.83
65637;DHT22;52327;42.622;23.316;2023-08-17T08:31:12;26.15;48.99
65637;DHT22;52327;42.622;23.316;2023-08-17T08:33:37;25.92;48.84
65637;DHT22;52327;42.622;23.316;2023-08-17T08:36:03;25.96;49.09
65637;DHT22;52327;42.622;23.316;2023-08-17T08:38:31;25.95;50.10
65637;DHT22;52327;42.622;23.316;2023-08-17T08:40:57;26.18;49.89
65637;DHT22;52327;42.622;23.316;2023-08-17T08:43:23;26.18;50.08
65637;DHT22;52327;42.622;23.316;2023-08-17T08:45:49;26.16;50.49
65637;DHT22;52327;42.622;23.316;2023-08-17T08:48:16;26.32;49.67
65637;DHT22;52327;42.622;23.316;2023-08-17T08:50:44;26.40;49.46
65637;DHT22;52327;42.622;23.316;2023-08-17T08:53:13;26.46;49.04
65637;DHT22;52327;42.622;23.316;2023-08-17T08:55:45;26.53;49.02
65637;DHT22;52327;42.622;23.316;2023-08-17T08:58:13;26.50;48.63
65637;DHT22;52327;42.622;23.316;2023-08-17T09:00:40;26.54;49.17
65637;DHT22;52327;42.622;23.316;2023-08-17T09:03:05;26.60;49.62
65637;DHT22;52327;42.622;23.316;2023-08-17T09:05:31;26.47;49.37
65637;DHT22;52327;42.622;23.316;2023-08-17T09:07:57;26.56;48.58
65637;DHT22;52327;42.622;23.316;2023-08-17T09:10:24;26.59;48.32
65637;DHT22;52327;42.622;23.316;2023-08-17T09:12:49;26.54;48.11
65637;DHT22;52327;42.622;23.316;2023-08-17T09:15:15;26.40;47.53
65637;DHT22;52327;42.622;23.316;2023-08-17T09:17:40;26.42;48.58
65637;DHT22;52327;42.622;23.316;2023-08-17T09:20:06;26.67;48.00
65637;DHT22;52327;42.622;23.316;2023-08-17T09:22:41;26.69;48.09
65637;DHT22;52327;42.622;23.316;2023-08-17T09:25:09;26.73;48.58
65637;DHT22;52327;42.622;23.316;2023-08-17T09:27:36;26.97;48.18
65637;DHT22;52327;42.622;23.316;2023-08-17T09:30:06;27.27;47.40
65637;DHT22;52327;42.622;23.316;2023-08-17T09:32:33;27.42;48.45
65637;DHT22;52327;42.622;23.316;2023-08-17T09:35:02;27.59;46.87
65637;DHT22;52327;42.622;23.316;2023-08-17T09:37:28;27.58;46.39
65637;DHT22;52327;42.622;23.316;2023-08-17T09:39:55;27.75;45.77
65637;DHT22;52327;42.622;23.316;2023-08-17T09:42:23;27.86;45.07
65637;DHT22;52327;42.622;23.316;2023-08-17T09:44:50;27.83;45.53
65637;DHT22;52327;42.622;23.316;2023-08-17T09:47:19;27.95;43.86
65637;DHT22;52327;42.622;23.316;2023-08-17T09:49:54;27.65;44.06
65637;DHT22;52327;42.622;23.316;2023-08-17T09:52:22;27.30;44.61
65637;DHT22;52327;42.622;23.316;2023-08-17T09:55:02;27.61;44.33
65637;DHT22;52327;42.622;23.316;2023-08-17T10:03:46;28.23;42.88
65637;DHT22;52327;42.622;23.316;2023-08-17T10:06:22;28.36;42.39
65637;DHT22;52327;42.622;23.316;2023-08-17T10:08:56;28.46;41.60
65637;DHT22;52327;42.622;23.316;2023-08-17T10:11:31;28.69;41.36
65637;DHT22;52327;42.622;23.316;2023-08-17T10:14:29;28.79;40.41
65637;DHT22;52327;42.622;23.316;2023-08-17T10:17:09;29.01;39.64
65637;DHT22;52327;42.622;23.316;2023-08-17T10:20:07;28.87;38.98
65637;DHT22;52327;42.622;23.316;2023-08-17T10:25:29;29.16;39.37
65637;DHT22;52327;42.622;23.316;2023-08-17T10:28:14;29.28;38.17
65637;DHT22;52327;42.622;23.316;2023-08-17T10:30:43;29.08;38.98
65637;DHT22;52327;42.622;23.316;2023-08-17T10:33:38;29.14;39.82
65637;DHT22;52327;42.622;23.316;2023-08-17T10:36:41;29.19;39.38
65637;DHT22;52327;42.622;23.316;2023-08-17T10:39:31;29.49;39.33
65637;DHT22;52327;42.622;23.316;2023-08-17T10:42:32;29.35;39.13
65637;DHT22;52327;42.622;23.316;2023-08-17T10:45:35;29.36;39.01
65637;DHT22;52327;42.622;23.316;2023-08-17T10:51:09;29.47;39.47
65637;DHT22;52327;42.622;23.316;2023-08-17T10:53:58;29.50;39.16
65637;DHT22;52327;42.622;23.316;2023-08-17T10:56:29;29.56;39.45
65637;DHT22;52327;42.622;23.316;2023-08-17T10:59:01;29.80;38.67
65637;DHT22;52327;42.622;23.316;2023-08-17T11:01:53;29.86;38.93
65637;DHT22;52327;42.622;23.316;2023-08-17T11:04:21;29.91;38.74
65637;DHT22;52327;42.622;23.316;2023-08-17T11:07:13;30.11;37.94
65637;DHT22;52327;42.622;23.316;2023-08-17T11:09:47;29.97;36.68
65637;DHT22;52327;42.622;23.316;2023-08-17T11:12:27;29.69;37.48
65637;DHT22;52327;42.622;23.316;2023-08-17T11:15:15;29.62;37.00
65637;DHT22;52327;42.622;23.316;2023-08-17T11:17:41;29.47;37.41
65637;DHT22;52327;42.622;23.316;2023-08-17T11:20:19;29.39;37.97
65637;DHT22;52327;42.622;23.316;2023-08-17T11:22:47;29.45;38.08
65637;DHT22;52327;42.622;23.316;2023-08-17T11:25:21;29.65;37.57
65637;DHT22;52327;42.622;23.316;2023-08-17T11:27:50;29.72;37.19
65637;DHT22;52327;42.622;23.316;2023-08-17T11:30:37;29.74;37.28
65637;DHT22;52327;42.622;23.316;2023-08-17T11:33:22;30.18;36.67
65637;DHT22;52327;42.622;23.316;2023-08-17T11:36:04;30.18;37.28
65637;DHT22;52327;42.622;23.316;2023-08-17T11:38:38;30.06;37.46
65637;DHT22;52327;42.622;23.316;2023-08-17T11:41:09;30.04;36.98
65637;DHT22;52327;42.622;23.316;2023-08-17T11:43:38;30.35;36.53
65637;DHT22;52327;42.622;23.316;2023-08-17T11:46:12;30.69;35.85
65637;DHT22;52327;42.622;23.316;2023-08-17T11:48:59;30.90;35.61
65637;DHT22;52327;42.622;23.316;2023-08-17T11:51:29;31.25;35.82
65637;DHT22;52327;42.622;23.316;2023-08-17T11:53:59;31.63;36.03
65637;DHT22;52327;42.622;23.316;2023-08-17T11:56:25;32.08;34.99
65637;DHT22;52327;42.622;23.316;2023-08-17T11:58:50;32.01;36.10
65637;DHT22;52327;42.622;23.316;2023-08-17T12:01:16;31.80;37.01
65637;DHT22;52327;42.622;23.316;2023-08-17T12:03:42;31.41;37.29
65637;DHT22;52327;42.622;23.316;2023-08-17T12:06:09;31.76;36.79
65637;DHT22;52327;42.622;23.316;2023-08-17T12:08:35;32.29;36.63
65637;DHT22;52327;42.622;23.316;2023-08-17T12:11:03;32.28;35.82
65637;DHT22;52327;42.622;23.316;2023-08-17T12:13:33;32.62;35.82
65637;DHT22;52327;42.622;23.316;2023-08-17T12:15:59;32.80;34.96
65637;DHT22;52327;42.622;23.316;2023-08-17T12:18:25;32.61;35.48
65637;DHT22;52327;42.622;23.316;2023-08-17T12:20:54;32.35;35.38
65637;DHT22;52327;42.622;23.316;2023-08-17T12:23:20;32.00;36.33
65637;DHT22;52327;42.622;23.316;2023-08-17T12:25:45;31.98;36.98
65637;DHT22;52327;42.622;23.316;2023-08-17T12:28:14;32.20;36.49
65637;DHT22;52327;42.622;23.316;2023-08-17T12:30:39;32.12;36.97
65637;DHT22;52327;42.622;23.316;2023-08-17T12:33:05;32.43;36.32
65637;DHT22;52327;42.622;23.316;2023-08-17T12:35:31;32.36;36.79
65637;DHT22;52327;42.622;23.316;2023-08-17T12:37:57;32.35;36.62
65637;DHT22;52327;42.622;23.316;2023-08-17T12:40:23;32.01;37.06
65637;DHT22;52327;42.622;23.316;2023-08-17T12:42:48;31.64;38.29
65637;DHT22;52327;42.622;23.316;2023-08-17T12:45:14;31.46;38.28
65637;DHT22;52327;42.622;23.316;2023-08-17T12:47:40;31.26;38.49
65637;DHT22;52327;42.622;23.316;2023-08-17T12:50:06;31.77;38.07
65637;DHT22;52327;42.622;23.316;2023-08-17T12:52:31;32.62;36.86
65637;DHT22;52327;42.622;23.316;2023-08-17T12:54:57;33.11;35.90
65637;DHT22;52327;42.622;23.316;2023-08-17T12:57:23;32.84;36.11
65637;DHT22;52327;42.622;23.316;2023-08-17T12:59:48;32.61;36.38
65637;DHT22;52327;42.622;23.316;2023-08-17T13:02:13;33.31;35.48
65637;DHT22;52327;42.622;23.316;2023-08-17T13:04:40;34.63;33.75
65637;DHT22;52327;42.622;23.316;2023-08-17T13:07:06;36.13;31.88
65637;DHT22;52327;42.622;23.316;2023-08-17T13:09:32;36.66;30.89
65637;DHT22;52327;42.622;23.316;2023-08-17T13:11:57;36.98;30.96
65637;DHT22;52327;42.622;23.316;2023-08-17T13:14:23;36.63;31.28
65637;DHT22;52327;42.622;23.316;2023-08-17T13:16:49;35.84;32.26
65637;DHT22;52327;42.622;23.316;2023-08-17T13:19:15;35.55;32.46
65637;DHT22;52327;42.622;23.316;2023-08-17T13:21:40;35.57;32.70
65637;DHT22;52327;42.622;23.316;2023-08-17T13:24:06;35.15;33.54
65637;DHT22;52327;42.622;23.316;2023-08-17T13:26:32;34.70;33.81
65637;DHT22;52327;42.622;23.316;2023-08-17T13:28:57;34.76;33.92
65637;DHT22;52327;42.622;23.316;2023-08-17T13:31:23;35.55;33.11
65637;DHT22;52327;42.622;23.316;2023-08-17T13:33:48;35.82;32.70
65637;DHT22;52327;42.622;23.316;2023-08-17T13:36:13;35.86;32.53
65637;DHT22;52327;42.622;23.316;2023-08-17T13:38:39;35.57;32.77
65637;DHT22;52327;42.622;23.316;2023-08-17T13:41:04;35.31;33.11
65637;DHT22;52327;42.622;23.316;2023-08-17T13:43:30;35.00;33.50
65637;DHT22;52327;42.622;23.316;2023-08-17T13:45:55;34.84;34.07
65637;DHT22;52327;42.622;23.316;2023-08-17T13:48:21;34.83;34.62
65637;DHT22;52327;42.622;23.316;2023-08-17T13:50:46;34.35;35.71
65637;DHT22;52327;42.622;23.316;2023-08-17T13:53:12;33.91;36.27
65637;DHT22;52327;42.622;23.316;2023-08-17T13:55:37;33.72;36.53
65637;DHT22;52327;42.622;23.316;2023-08-17T13:58:03;33.55;36.82
65637;DHT22;52327;42.622;23.316;2023-08-17T14:00:31;33.43;36.74
65637;DHT22;52327;42.622;23.316;2023-08-17T14:02:57;33.19;36.84
65637;DHT22;52327;42.622;23.316;2023-08-17T14:05:22;32.96;37.51
65637;DHT22;52327;42.622;23.316;2023-08-17T14:07:48;33.06;37.45
65637;DHT22;52327;42.622;23.316;2023-08-17T14:10:14;33.09;37.44
65637;DHT22;52327;42.622;23.316;2023-08-17T14:12:39;33.14;37.97
65637;DHT22;52327;42.622;23.316;2023-08-17T14:15:05;33.26;37.22
65637;DHT22;52327;42.622;23.316;2023-08-17T14:17:31;33.03;37.83
65637;DHT22;52327;42.622;23.316;2023-08-17T14:19:56;32.68;37.80
65637;DHT22;52327;42.622;23.316;2023-08-17T14:22:22;32.28;38.40
65637;DHT22;52327;42.622;23.316;2023-08-17T14:24:47;31.95;38.39
65637;DHT22;52327;42.622;23.316;2023-08-17T14:27:13;31.44;39.38
65637;DHT22;52327;42.622;23.316;2023-08-17T14:29:38;31.26;39.47
65637;DHT22;52327;42.622;23.316;2023-08-17T14:32:04;31.15;39.57
65637;DHT22;52327;42.622;23.316;2023-08-17T14:34:30;31.20;39.73
65637;DHT22;52327;42.622;23.316;2023-08-17T14:36:55;31.15;40.07
65637;DHT22;52327;42.622;23.316;2023-08-17T14:39:20;31.18;40.02
